City Of Cleveland — WDC2358 — position and weather

sailwx.info

Track history (hours):
 
Tides and Currents Weather Stations Pressure Air Temp Water Temp Dewpoint Dewpoint Depression Visibility Wind Speed Wind Dir Waves Ship Positions

City Of Cleveland

Owner: JANTRAN, INC., ROSEDALE, MS. More information available from US FCC via Universal Licensing System and Coast Guard Vessel Documentation Center.

Last reported at 2017-Feb-19 13:14 UTC. Time now 2017-Feb-21 01:20 UTC.
Position N 30°07' W 090°55'.

Length 42 m; draft 12.5 m.

Type: Towing. MMSI: 366991810.

Date/timePositionNaut miles runAvg speedWind from/ knotsBaromVisibWave heightAir tempDewpointWater temp
2017-Feb-19 13:14N 30°07' W 090°55'0 0.0
2017-Feb-19 12:33N 30°07' W 090°55'0 0.0
2017-Feb-19 07:26N 30°07' W 090°55'4 1.8
2017-Feb-19 05:26N 30°04' W 090°53'  
2017-Feb-13 19:12N 32°01' W 091°04'4 6.5
2017-Feb-13 18:32N 32°06' W 091°05'3 3.4
2017-Feb-13 17:34N 32°07' W 091°02'7 6.5
2017-Feb-13 16:34N 32°13' W 090°59'7 7.5
2017-Feb-13 15:33N 32°19' W 090°54'6 5.9
2017-Feb-13 14:34N 32°22' W 091°00'6 6.2
2017-Feb-13 13:34N 32°27' W 091°05'7 7.0
2017-Feb-13 12:34N 32°34' W 091°06'  
2017-Feb-09 17:20N 32°36' W 091°08'3 3.2
2017-Feb-09 16:22N 32°34' W 091°06'3 3.9
2017-Feb-09 15:32N 32°30' W 091°07'4 3.7
2017-Feb-09 14:33N 32°27' W 091°05'4 3.6
2017-Feb-09 13:34N 32°26' W 091°01'  
Track history (hours):
 
Tides and Currents Weather Stations Pressure Air Temp Water Temp Dewpoint Dewpoint Depression Visibility Wind Speed Wind Dir Waves Ship Positions

City Of Cleveland

Owner: JANTRAN, INC., ROSEDALE, MS. More information available from US FCC via Universal Licensing System and Coast Guard Vessel Documentation Center.

Last reported at 2017-Feb-19 13:14 UTC. Time now 2017-Feb-21 01:20 UTC.
Position N 30°07' W 090°55'.

Length 42 m; draft 12.5 m.

Type: Towing. MMSI: 366991810.

Date/timePositionNaut miles runAvg speedWind from/ knotsBaromVisibWave heightAir tempDewpointWater temp
2017-Feb-19 13:14N 30°07' W 090°55'0 0.0
2017-Feb-19 12:33N 30°07' W 090°55'0 0.0
2017-Feb-19 07:26N 30°07' W 090°55'4 1.8
2017-Feb-19 05:26N 30°04' W 090°53'  
2017-Feb-13 19:12N 32°01' W 091°04'4 6.5
2017-Feb-13 18:32N 32°06' W 091°05'3 3.4
2017-Feb-13 17:34N 32°07' W 091°02'7 6.5
2017-Feb-13 16:34N 32°13' W 090°59'7 7.5
2017-Feb-13 15:33N 32°19' W 090°54'6 5.9
2017-Feb-13 14:34N 32°22' W 091°00'6 6.2
2017-Feb-13 13:34N 32°27' W 091°05'7 7.0
2017-Feb-13 12:34N 32°34' W 091°06'  
2017-Feb-09 17:20N 32°36' W 091°08'3 3.2
2017-Feb-09 16:22N 32°34' W 091°06'3 3.9
2017-Feb-09 15:32N 32°30' W 091°07'4 3.7
2017-Feb-09 14:33N 32°27' W 091°05'4 3.6
2017-Feb-09 13:34N 32°26' W 091°01'  

Dump ship's entire track history